Lochbuie, Colorado
Current Conditions -  °F | °C
As of 9:53 AM on Thursday 30 Oct 2014 (Local Time) from KDEN Reporting Station
Few Clouds Few Clouds  
Wind Chill: 52°   Ceiling: Unl
Heat Index: 52°   Visibility: 10mi
Dew Point: 27°   Wind: 7mph
Humidity: 38%   Direction: 240°WSW
Pressure: 30.4"   Gusts: NA
Location:  39.9805°N, 104.669°W
Report Text: KDEN 301553Z 24006KT 10SM FEW090 FEW120 11/M03 A3040 RMK AO2 SLP259 T01111028
Loading
Personal Weather Stations






























Interactive Weather Map
Tropical Storm Tracking
New forecast layout! Learn more

10-Day Weather Forecast

Advertisements
Track Severe Weather on mobile